createdAt,value
2022-12-01T00:00:58.634Z,27.50
2022-12-01T00:01:58.687Z,27.00
2022-12-01T00:02:58.587Z,29.40
2022-12-01T00:03:58.495Z,29.30
2022-12-01T00:04:58.492Z,30.30
2022-12-01T00:05:58.476Z,30.50
2022-12-01T00:06:58.477Z,31.00
2022-12-01T00:07:58.523Z,32.80
2022-12-01T00:08:58.445Z,31.50
2022-12-01T00:09:58.437Z,31.10
2022-12-01T00:10:58.418Z,32.10
2022-12-01T00:11:58.436Z,31.50
2022-12-01T00:12:58.398Z,34.70
2022-12-01T00:13:58.407Z,34.20
2022-12-01T00:14:58.380Z,33.50
2022-12-01T00:15:58.384Z,31.70
2022-12-01T00:16:58.442Z,33.80
2022-12-01T00:17:58.357Z,35.30
2022-12-01T00:18:58.340Z,34.30
2022-12-01T00:19:58.341Z,35.00
2022-12-01T00:20:58.322Z,35.40
2022-12-01T00:21:58.330Z,36.50
2022-12-01T00:22:58.299Z,40.30
2022-12-01T00:23:58.300Z,39.10
2022-12-01T00:24:58.282Z,39.70
2022-12-01T00:25:58.272Z,40.00
2022-12-01T00:26:58.277Z,40.20
2022-12-01T00:27:58.254Z,38.90
2022-12-01T00:28:58.249Z,38.80
2022-12-01T00:29:58.234Z,41.10
2022-12-01T00:30:58.263Z,44.20
2022-12-01T00:31:58.280Z,42.10
2022-12-01T00:32:58.204Z,41.00
2022-12-01T00:33:58.197Z,43.00
2022-12-01T00:34:58.175Z,43.40
2022-12-01T00:35:58.170Z,44.20
2022-12-01T00:36:58.176Z,43.30
2022-12-01T00:37:58.148Z,41.80
2022-12-01T00:38:58.136Z,43.60
2022-12-01T00:39:58.130Z,44.20
2022-12-01T00:40:58.110Z,43.80
2022-12-01T00:41:58.127Z,46.60
2022-12-01T00:42:58.094Z,48.90
2022-12-01T00:43:58.088Z,48.40
2022-12-01T00:44:58.079Z,48.80
2022-12-01T00:45:58.137Z,50.00
2022-12-01T00:46:58.069Z,49.50
2022-12-01T00:47:58.050Z,49.80
2022-12-01T00:48:58.032Z,51.90
2022-12-01T00:49:58.029Z,51.50
2022-12-01T00:50:58.009Z,52.70
2022-12-01T00:51:58.029Z,51.80
2022-12-01T00:52:57.989Z,50.70
2022-12-01T00:53:57.988Z,52.40
2022-12-01T00:54:57.970Z,49.10
2022-12-01T00:55:57.963Z,48.10
2022-12-01T00:56:57.970Z,48.70
2022-12-01T00:57:57.943Z,47.60
2022-12-01T00:58:57.933Z,49.40
2022-12-01T00:59:57.921Z,48.80
2022-12-01T01:00:57.957Z,51.10
2022-12-01T01:01:57.930Z,50.10
2022-12-01T01:02:57.896Z,52.70
2022-12-01T01:03:57.882Z,51.10
2022-12-01T01:04:57.873Z,51.10
2022-12-01T01:05:57.865Z,50.40
2022-12-01T01:06:57.865Z,54.60
2022-12-01T01:07:57.883Z,58.60
2022-12-01T01:08:57.825Z,58.20
2022-12-01T01:09:57.824Z,57.40
2022-12-01T01:10:57.805Z,55.10
2022-12-01T01:11:57.816Z,55.30
2022-12-01T01:12:57.786Z,55.20
2022-12-01T01:13:57.776Z,59.20
2022-12-01T01:14:57.766Z,58.60
2022-12-01T01:15:57.760Z,62.70
2022-12-01T01:16:57.812Z,64.50
2022-12-01T01:17:57.738Z,62.20
2022-12-01T01:18:57.728Z,60.90
2022-12-01T01:19:57.717Z,63.10
2022-12-01T01:20:57.705Z,62.90
2022-12-01T01:21:57.693Z,63.30
2022-12-01T01:22:57.700Z,64.00
2022-12-01T01:23:57.669Z,61.90
2022-12-01T01:24:57.668Z,63.10
2022-12-01T01:25:57.650Z,64.00
2022-12-01T01:26:57.652Z,64.00
2022-12-01T01:27:57.648Z,64.30
2022-12-01T01:28:57.632Z,67.90
2022-12-01T01:29:57.614Z,64.30
2022-12-01T01:30:57.656Z,65.30
2022-12-01T01:31:57.591Z,66.30
2022-12-01T01:32:57.602Z,66.10
2022-12-01T01:33:57.575Z,68.20
2022-12-01T01:34:57.562Z,67.20
2022-12-01T01:35:57.553Z,65.20
2022-12-01T01:36:57.544Z,66.00
2022-12-01T01:37:57.550Z,66.00
2022-12-01T01:38:57.529Z,64.50
2022-12-01T01:39:57.516Z,66.70
2022-12-01T01:40:57.506Z,67.30
2022-12-01T01:41:57.486Z,69.10
2022-12-01T01:42:57.503Z,66.60
2022-12-01T01:43:57.474Z,66.70
2022-12-01T01:44:57.458Z,68.10
2022-12-01T01:45:57.517Z,68.80
2022-12-01T01:46:57.453Z,68.80
2022-12-01T01:47:57.445Z,66.80
2022-12-01T01:48:57.425Z,64.90
2022-12-01T01:49:57.407Z,66.30
2022-12-01T01:50:57.398Z,71.00
2022-12-01T01:51:57.387Z,68.50
2022-12-01T01:52:57.399Z,67.40
2022-12-01T01:53:57.369Z,68.20
2022-12-01T01:54:57.365Z,67.70
2022-12-01T01:55:57.348Z,68.60
2022-12-01T01:56:57.339Z,68.20
2022-12-01T01:57:57.340Z,67.00
2022-12-01T01:58:57.320Z,68.30
2022-12-01T01:59:57.320Z,68.30
2022-12-01T02:00:57.372Z,66.70
2022-12-01T02:01:57.288Z,67.60
2022-12-01T02:02:57.441Z,68.40
2022-12-01T02:03:57.263Z,67.60
2022-12-01T02:04:57.262Z,69.10
2022-12-01T02:06:01.813Z,69.60
2022-12-01T02:06:58.240Z,71.60
2022-12-01T02:07:57.341Z,70.70
2022-12-01T02:08:57.212Z,67.30
2022-12-01T02:09:57.203Z,68.20
2022-12-01T02:10:57.194Z,68.90
2022-12-01T02:11:57.192Z,69.90
2022-12-01T02:12:57.196Z,71.00
2022-12-01T02:13:57.165Z,70.30
2022-12-01T02:14:57.164Z,71.00
2022-12-01T02:15:57.154Z,70.30
2022-12-01T02:16:57.194Z,68.80
2022-12-01T02:17:57.136Z,70.10
2022-12-01T02:18:57.117Z,70.50
2022-12-01T02:19:57.103Z,70.30
2022-12-01T02:20:57.126Z,69.50
2022-12-01T02:21:57.107Z,71.90
2022-12-01T02:22:57.096Z,72.10
2022-12-01T02:23:57.057Z,72.30
2022-12-01T02:24:57.056Z,70.40
2022-12-01T02:25:57.038Z,72.80
2022-12-01T02:26:57.037Z,70.30
2022-12-01T02:27:57.039Z,71.60
2022-12-01T02:28:57.041Z,70.80
2022-12-01T02:29:56.999Z,71.40
2022-12-01T02:30:57.072Z,72.30
2022-12-01T02:31:56.982Z,70.90
2022-12-01T02:32:57.021Z,72.10
2022-12-01T02:33:56.959Z,71.90
2022-12-01T02:34:56.951Z,70.70
2022-12-01T02:35:56.940Z,70.90
2022-12-01T02:36:56.938Z,71.80
2022-12-01T02:37:56.941Z,73.00
2022-12-01T02:38:56.911Z,72.30
2022-12-01T02:39:56.900Z,71.20
2022-12-01T02:40:56.892Z,74.70
2022-12-01T02:41:56.882Z,73.90
2022-12-01T02:42:56.890Z,74.90
2022-12-01T02:43:56.852Z,73.10
2022-12-01T02:44:56.853Z,75.50
2022-12-01T02:45:56.900Z,73.90
2022-12-01T02:46:56.833Z,75.00
2022-12-01T02:47:56.834Z,76.20
2022-12-01T02:48:56.812Z,74.50
2022-12-01T02:49:56.793Z,72.70
2022-12-01T02:50:56.791Z,73.20
2022-12-01T02:51:56.791Z,76.60
2022-12-01T02:52:56.786Z,76.00
2022-12-01T02:53:56.754Z,75.30
2022-12-01T02:54:56.756Z,75.70
2022-12-01T02:55:56.735Z,76.10
2022-12-01T02:56:56.726Z,79.10
2022-12-01T02:57:56.728Z,76.30
2022-12-01T02:58:56.706Z,79.00
2022-12-01T02:59:56.699Z,77.60
2022-12-01T03:00:56.767Z,76.70
2022-12-01T03:01:56.676Z,77.60
2022-12-01T03:02:56.747Z,79.00
2022-12-01T03:03:56.660Z,80.40
2022-12-01T03:04:56.647Z,78.40
2022-12-01T03:05:56.631Z,79.30
2022-12-01T03:06:56.628Z,78.50
2022-12-01T03:07:56.730Z,80.10
2022-12-01T03:08:56.610Z,79.50
2022-12-01T03:09:56.598Z,80.00
2022-12-01T03:10:56.588Z,80.60
2022-12-01T03:11:56.581Z,83.20
2022-12-01T03:12:56.588Z,83.20
2022-12-01T03:13:56.550Z,81.30
2022-12-01T03:14:56.542Z,84.00
2022-12-01T03:15:56.579Z,82.50
2022-12-01T03:16:56.523Z,82.20
2022-12-01T03:17:56.522Z,83.40
2022-12-01T03:18:56.511Z,82.60
2022-12-01T03:19:56.483Z,83.80
2022-12-01T03:20:56.483Z,81.60
2022-12-01T03:21:56.493Z,82.80
2022-12-01T03:22:56.483Z,84.10
2022-12-01T03:23:56.444Z,86.10
2022-12-01T03:24:56.467Z,85.00
2022-12-01T03:25:56.461Z,85.10
2022-12-01T03:26:56.437Z,85.10
2022-12-01T03:28:20.081Z,86.10
2022-12-01T03:28:57.403Z,85.00
2022-12-01T03:29:56.392Z,86.00
2022-12-01T03:30:56.421Z,84.60
2022-12-01T03:31:56.366Z,84.50
2022-12-01T03:32:56.377Z,84.50
2022-12-01T03:33:56.357Z,86.50
2022-12-01T03:34:56.337Z,85.30
2022-12-01T03:35:56.327Z,84.80
2022-12-01T03:36:56.329Z,84.60
2022-12-01T03:37:56.338Z,89.00
2022-12-01T03:38:56.306Z,86.50
2022-12-01T03:40:00.322Z,84.90
2022-12-01T03:40:56.287Z,86.40
2022-12-01T03:41:56.269Z,85.10
2022-12-01T03:42:56.278Z,85.20
2022-12-01T03:43:56.240Z,85.60
2022-12-01T03:44:56.240Z,85.50
2022-12-01T03:45:56.288Z,87.10
2022-12-01T03:46:56.231Z,87.10
2022-12-01T03:47:56.221Z,88.60
2022-12-01T03:48:56.209Z,86.60
2022-12-01T03:49:56.182Z,85.70
2022-12-01T03:50:56.185Z,86.40
2022-12-01T03:51:56.172Z,86.70
2022-12-01T03:52:56.203Z,86.60
2022-12-01T03:53:56.142Z,86.60
2022-12-01T03:54:56.146Z,87.70
2022-12-01T03:55:56.152Z,86.70
2022-12-01T03:56:56.132Z,87.10
2022-12-01T03:57:56.117Z,88.20
2022-12-01T03:58:56.104Z,88.20
2022-12-01T03:59:56.085Z,88.20
2022-12-01T04:00:56.075Z,89.90
2022-12-01T04:01:56.129Z,91.20
2022-12-01T04:02:56.167Z,86.90
2022-12-01T04:03:56.046Z,86.90
2022-12-01T04:04:56.037Z,88.40
2022-12-01T04:05:56.025Z,91.20
2022-12-01T04:06:56.027Z,91.40
2022-12-01T04:07:56.061Z,88.20
2022-12-01T04:08:55.996Z,88.50
2022-12-01T04:09:55.980Z,87.90
2022-12-01T04:10:55.975Z,88.60
2022-12-01T04:11:55.961Z,88.40
2022-12-01T04:12:55.959Z,91.10
2022-12-01T04:13:55.968Z,88.20
2022-12-01T04:14:55.948Z,90.10
2022-12-01T04:15:56.047Z,90.00
2022-12-01T04:16:55.918Z,87.80
2022-12-01T04:17:55.899Z,86.90
2022-12-01T04:18:55.911Z,87.40
2022-12-01T04:19:55.882Z,84.70
2022-12-01T04:20:55.879Z,86.60
2022-12-01T04:21:55.862Z,87.00
2022-12-01T04:22:55.862Z,86.90
2022-12-01T04:23:55.862Z,87.80
2022-12-01T04:24:55.832Z,89.20
2022-12-01T04:25:55.822Z,85.40
2022-12-01T04:26:55.815Z,87.50
2022-12-01T04:27:55.803Z,84.70
2022-12-01T04:28:55.813Z,87.50
2022-12-01T04:29:55.789Z,86.00
2022-12-01T04:30:55.850Z,86.20
2022-12-01T04:31:55.765Z,86.20
2022-12-01T04:32:55.759Z,86.10
2022-12-01T04:33:55.762Z,85.90
2022-12-01T04:34:55.736Z,87.00
2022-12-01T04:35:55.716Z,88.40
2022-12-01T04:36:55.714Z,85.50
2022-12-01T04:37:55.705Z,82.10
2022-12-01T04:38:55.707Z,87.70
2022-12-01T04:39:55.678Z,86.70
2022-12-01T04:40:55.684Z,84.80
2022-12-01T04:41:55.658Z,86.00
2022-12-01T04:42:55.657Z,84.50
2022-12-01T04:43:55.656Z,84.60
2022-12-01T04:44:55.627Z,84.00
2022-12-01T04:45:55.618Z,82.60
2022-12-01T04:46:55.669Z,84.60
2022-12-01T04:47:55.589Z,88.70
2022-12-01T04:48:55.615Z,82.50
2022-12-01T04:49:55.580Z,81.60
2022-12-01T04:50:55.569Z,82.70
2022-12-01T04:51:55.567Z,82.40
2022-12-01T04:52:55.549Z,80.90
2022-12-01T04:53:55.559Z,81.30
2022-12-01T04:54:55.530Z,81.70
2022-12-01T04:55:55.521Z,82.10
2022-12-01T04:56:55.513Z,84.60
2022-12-01T04:57:55.501Z,86.50
2022-12-01T04:58:55.508Z,82.70
2022-12-01T04:59:55.472Z,83.30
2022-12-01T05:00:55.565Z,83.40
2022-12-01T05:01:55.530Z,86.30
2022-12-01T05:02:55.469Z,82.60
2022-12-01T05:03:55.454Z,80.60
2022-12-01T05:04:55.445Z,80.50
2022-12-01T05:05:55.426Z,79.80
2022-12-01T05:06:55.417Z,80.40
2022-12-01T05:07:55.462Z,78.90
2022-12-01T05:08:55.413Z,78.30
2022-12-01T05:09:55.375Z,79.40
2022-12-01T05:10:55.366Z,78.90
2022-12-01T05:11:55.357Z,80.40
2022-12-01T05:12:55.347Z,80.50
2022-12-01T05:13:55.347Z,81.10
2022-12-01T05:14:55.333Z,79.40
2022-12-01T05:15:55.337Z,80.50
2022-12-01T05:16:55.308Z,79.20
2022-12-01T05:17:55.298Z,80.60
2022-12-01T05:18:55.354Z,82.70
2022-12-01T05:19:55.268Z,79.20
2022-12-01T05:20:55.268Z,75.40
2022-12-01T05:21:55.263Z,78.30
2022-12-01T05:23:05.365Z,81.50
2022-12-01T05:23:56.249Z,76.50
2022-12-01T05:24:55.228Z,78.00
2022-12-01T05:25:55.211Z,74.20
2022-12-01T05:26:55.212Z,77.00
2022-12-01T05:27:55.191Z,77.90
2022-12-01T05:28:55.201Z,74.60
2022-12-01T05:29:55.172Z,73.10
2022-12-01T05:30:55.171Z,78.60
2022-12-01T05:31:55.251Z,77.60
2022-12-01T05:32:55.141Z,72.90
2022-12-01T05:33:55.154Z,75.40
2022-12-01T05:34:55.191Z,75.00
2022-12-01T05:35:55.132Z,79.70
2022-12-01T05:36:55.105Z,75.80
2022-12-01T05:37:55.103Z,74.10
2022-12-01T05:38:55.103Z,74.60
2022-12-01T05:39:55.105Z,75.20
2022-12-01T05:40:55.072Z,77.20
2022-12-01T05:41:55.056Z,74.50
2022-12-01T05:42:55.043Z,73.40
2022-12-01T05:43:55.059Z,73.60
2022-12-01T05:44:55.025Z,78.60
2022-12-01T05:45:55.051Z,70.90
2022-12-01T05:46:54.998Z,72.60
2022-12-01T05:47:54.995Z,73.30
2022-12-01T05:48:54.998Z,73.10
2022-12-01T05:49:54.980Z,73.70
2022-12-01T05:50:54.958Z,72.20
2022-12-01T05:51:54.957Z,75.20
2022-12-01T05:52:54.937Z,72.50
2022-12-01T05:53:54.956Z,72.30
2022-12-01T05:54:54.918Z,73.50
2022-12-01T05:55:54.918Z,74.70
2022-12-01T05:56:54.899Z,73.80
2022-12-01T05:57:54.910Z,71.90
2022-12-01T05:58:54.898Z,71.50
2022-12-01T05:59:54.888Z,76.60
2022-12-01T06:00:55.098Z,73.70
2022-12-01T06:01:54.906Z,71.00
2022-12-01T06:02:54.841Z,73.10
2022-12-01T06:03:54.895Z,75.00
2022-12-01T06:04:54.822Z,70.30
2022-12-01T06:05:54.812Z,69.90
2022-12-01T06:06:54.802Z,70.50
2022-12-01T06:07:54.825Z,73.00
2022-12-01T06:08:54.801Z,71.20
2022-12-01T06:09:54.772Z,67.70
2022-12-01T06:10:54.752Z,69.00
2022-12-01T06:11:54.753Z,71.90
2022-12-01T06:12:54.743Z,70.60
2022-12-01T06:13:54.754Z,69.40
2022-12-01T06:14:54.804Z,69.40
2022-12-01T06:15:54.713Z,67.80
2022-12-01T06:16:54.730Z,71.40
2022-12-01T06:17:54.695Z,68.80
2022-12-01T06:18:54.694Z,68.80
2022-12-01T06:19:54.673Z,67.40
2022-12-01T06:20:54.657Z,71.70
2022-12-01T06:21:54.661Z,70.40
2022-12-01T06:22:54.636Z,68.00
2022-12-01T06:23:54.647Z,69.50
2022-12-01T06:24:54.617Z,72.50
2022-12-01T06:25:54.615Z,69.70
2022-12-01T06:26:54.597Z,68.80
2022-12-01T06:27:54.588Z,68.10
2022-12-01T06:28:54.599Z,67.80
2022-12-01T06:29:54.653Z,72.90
2022-12-01T06:30:59.469Z,67.20
2022-12-01T06:31:55.642Z,66.70
2022-12-01T06:32:54.548Z,70.00
2022-12-01T06:33:54.555Z,72.70
2022-12-01T06:34:54.518Z,68.40
2022-12-01T06:35:54.511Z,68.30
2022-12-01T06:36:54.501Z,66.10
2022-12-01T06:37:54.492Z,70.20
2022-12-01T06:38:54.490Z,69.80
2022-12-01T06:39:54.470Z,67.10
2022-12-01T06:40:54.451Z,65.60
2022-12-01T06:41:54.454Z,66.10
2022-12-01T06:42:54.441Z,69.70
2022-12-01T06:43:54.452Z,65.70
2022-12-01T06:44:54.422Z,65.50
2022-12-01T06:46:00.904Z,66.80
2022-12-01T06:46:55.394Z,67.70
2022-12-01T06:47:54.397Z,66.70
2022-12-01T06:48:54.393Z,63.60
2022-12-01T06:49:54.332Z,65.90
2022-12-01T06:50:54.305Z,70.70
2022-12-01T06:51:54.295Z,66.10
2022-12-01T06:52:54.337Z,65.90
2022-12-01T06:53:54.347Z,66.60
2022-12-01T06:54:54.314Z,69.20
2022-12-01T06:55:54.315Z,61.70
2022-12-01T06:56:54.295Z,64.50
2022-12-01T06:57:54.291Z,61.10
2022-12-01T06:58:54.246Z,61.30
2022-12-01T06:59:54.219Z,60.60
2022-12-01T07:00:54.277Z,61.80
2022-12-01T07:01:54.285Z,61.00
2022-12-01T07:02:54.231Z,60.80
2022-12-01T07:03:54.248Z,64.20
2022-12-01T07:04:54.208Z,65.00
2022-12-01T07:05:54.210Z,61.70
2022-12-01T07:06:54.210Z,60.90
2022-12-01T07:07:59.322Z,60.40
2022-12-01T07:08:55.142Z,62.50
2022-12-01T07:09:54.116Z,65.60
2022-12-01T07:10:54.101Z,63.00
2022-12-01T07:11:54.108Z,61.00
2022-12-01T07:12:54.081Z,59.60
2022-12-01T07:13:54.080Z,62.30
2022-12-01T07:14:54.070Z,58.70
2022-12-01T07:15:54.051Z,57.00
2022-12-01T07:16:54.132Z,56.50
2022-12-01T07:17:54.039Z,62.60
2022-12-01T07:18:54.020Z,59.80
2022-12-01T07:19:54.031Z,57.70
2022-12-01T07:20:54.010Z,60.10
2022-12-01T07:21:53.993Z,64.10
2022-12-01T07:22:53.984Z,57.90
2022-12-01T07:23:53.975Z,58.50
2022-12-01T07:24:53.975Z,57.40
2022-12-01T07:25:53.964Z,64.10
2022-12-01T07:26:53.934Z,62.30
2022-12-01T07:27:53.935Z,60.60
2022-12-01T07:28:53.915Z,58.60
2022-12-01T07:29:53.933Z,65.40
2022-12-01T07:30:53.932Z,60.20
2022-12-01T07:31:53.897Z,60.20
2022-12-01T07:32:53.876Z,61.20
2022-12-01T07:33:53.875Z,62.90
2022-12-01T07:34:53.876Z,61.50
2022-12-01T07:35:53.857Z,58.80
2022-12-01T07:36:53.837Z,59.50
2022-12-01T07:37:53.838Z,63.10
2022-12-01T07:38:53.817Z,63.60
2022-12-01T07:39:53.838Z,60.00
2022-12-01T07:40:53.799Z,58.30
2022-12-01T07:41:53.796Z,63.90
2022-12-01T07:42:53.779Z,60.70
2022-12-01T07:43:53.767Z,58.90
2022-12-01T07:44:53.780Z,59.90
2022-12-01T07:45:53.851Z,65.20
2022-12-01T07:46:53.741Z,62.90
2022-12-01T07:47:53.732Z,62.90
2022-12-01T07:48:53.720Z,62.10
2022-12-01T07:49:53.733Z,61.40
2022-12-01T07:50:53.692Z,60.00
2022-12-01T07:51:53.689Z,60.10
2022-12-01T07:52:53.678Z,56.40
2022-12-01T07:53:53.671Z,63.70
2022-12-01T07:54:53.671Z,60.50
2022-12-01T07:55:53.654Z,57.30
2022-12-01T07:56:53.640Z,57.80
2022-12-01T07:57:53.632Z,62.50
2022-12-01T07:58:53.615Z,58.50
2022-12-01T07:59:53.632Z,58.10
2022-12-01T08:00:53.593Z,56.50
2022-12-01T08:01:53.670Z,62.70
2022-12-01T08:02:53.599Z,57.90
2022-12-01T08:03:53.574Z,58.00
2022-12-01T08:04:53.577Z,55.00
2022-12-01T08:05:53.552Z,60.40
2022-12-01T08:06:53.566Z,58.00
2022-12-01T08:07:53.585Z,53.90
2022-12-01T08:08:53.523Z,54.30
2022-12-01T08:09:53.527Z,57.70
2022-12-01T08:10:53.498Z,60.90
2022-12-01T08:11:53.497Z,56.90
2022-12-01T08:12:53.486Z,55.80
2022-12-01T08:13:53.476Z,55.10
2022-12-01T08:14:53.468Z,55.80
2022-12-01T08:15:53.460Z,59.10
2022-12-01T08:16:53.431Z,55.70
2022-12-01T08:17:53.431Z,56.30
2022-12-01T08:18:53.422Z,54.20
2022-12-01T08:19:53.428Z,58.70
2022-12-01T08:20:53.400Z,58.60
2022-12-01T08:21:53.389Z,54.30
2022-12-01T08:22:53.378Z,55.50
2022-12-01T08:23:53.369Z,56.00
2022-12-01T08:24:53.373Z,58.30
2022-12-01T08:25:53.349Z,55.50
2022-12-01T08:26:53.330Z,55.60
2022-12-01T08:27:53.330Z,54.60
2022-12-01T08:28:53.311Z,52.90
2022-12-01T08:29:53.332Z,53.80
2022-12-01T08:30:53.327Z,53.90
2022-12-01T08:31:53.293Z,53.90
2022-12-01T08:32:53.273Z,54.30
2022-12-01T08:33:53.294Z,53.10
2022-12-01T08:34:53.812Z,54.00
2022-12-01T08:35:53.245Z,51.60
2022-12-01T08:36:53.244Z,54.20
2022-12-01T08:37:53.233Z,53.50
2022-12-01T08:38:53.213Z,55.10
2022-12-01T08:39:53.224Z,53.80
2022-12-01T08:40:53.195Z,53.30
2022-12-01T08:41:53.190Z,53.70
2022-12-01T08:42:53.175Z,52.10
2022-12-01T08:43:58.478Z,59.80
2022-12-01T08:44:54.224Z,55.60
2022-12-01T08:45:53.146Z,54.50
2022-12-01T08:46:53.165Z,55.20
2022-12-01T08:47:53.125Z,58.00
2022-12-01T08:48:53.118Z,54.80
2022-12-01T08:49:53.128Z,53.70
2022-12-01T08:50:53.094Z,56.20
2022-12-01T08:51:53.095Z,57.00
2022-12-01T08:52:53.072Z,55.20
2022-12-01T08:53:53.066Z,56.00
2022-12-01T08:54:53.068Z,54.50
2022-12-01T08:55:53.048Z,58.90
2022-12-01T08:56:53.028Z,56.30
2022-12-01T08:57:53.030Z,54.80
2022-12-01T08:58:53.010Z,53.40
2022-12-01T08:59:53.020Z,58.00
2022-12-01T09:00:52.991Z,56.50
2022-12-01T09:01:53.047Z,54.40
2022-12-01T09:02:52.988Z,52.50
2022-12-01T09:03:52.968Z,53.80
2022-12-01T09:04:52.980Z,51.30
2022-12-01T09:05:52.956Z,52.00
2022-12-01T09:06:52.939Z,50.80
2022-12-01T09:07:52.966Z,56.00
2022-12-01T09:08:52.915Z,51.20
2022-12-01T09:09:52.969Z,49.30
2022-12-01T09:10:52.891Z,48.70
2022-12-01T09:11:52.882Z,53.90
2022-12-01T09:12:52.864Z,51.10
2022-12-01T09:13:54.713Z,48.10
2022-12-01T09:14:52.870Z,49.90
2022-12-01T09:15:52.905Z,47.80
2022-12-01T09:16:52.825Z,47.70
2022-12-01T09:17:52.824Z,47.40
2022-12-01T09:18:52.813Z,47.50
2022-12-01T09:19:52.881Z,48.30
2022-12-01T09:20:52.798Z,50.80
2022-12-01T09:21:52.785Z,49.70
2022-12-01T09:22:52.774Z,47.80
2022-12-01T09:23:52.765Z,49.40
2022-12-01T09:24:52.767Z,51.90
2022-12-01T09:25:52.748Z,53.50
2022-12-01T09:26:52.728Z,50.20
2022-12-01T09:27:52.728Z,49.40
2022-12-01T09:28:52.710Z,51.30
2022-12-01T09:29:52.718Z,49.10
2022-12-01T09:30:52.688Z,46.10
2022-12-01T09:31:52.760Z,45.80
2022-12-01T09:32:52.668Z,46.90
2022-12-01T09:33:52.659Z,46.10
2022-12-01T09:34:52.667Z,44.40
2022-12-01T09:35:52.649Z,45.90
2022-12-01T09:36:52.633Z,47.70
2022-12-01T09:37:52.620Z,44.20
2022-12-01T09:38:52.613Z,43.70
2022-12-01T09:39:52.620Z,43.40
2022-12-01T09:40:52.590Z,46.50
2022-12-01T09:41:52.581Z,42.10
2022-12-01T09:42:52.573Z,40.10
2022-12-01T09:43:52.562Z,39.50
2022-12-01T09:44:52.570Z,40.70
2022-12-01T09:45:52.542Z,38.90
2022-12-01T09:46:52.562Z,40.10
2022-12-01T09:47:52.522Z,41.80
2022-12-01T09:48:52.512Z,42.20
2022-12-01T09:49:52.524Z,39.60
2022-12-01T09:50:52.495Z,38.70
2022-12-01T09:51:52.484Z,41.10
2022-12-01T09:52:52.474Z,36.90
2022-12-01T09:53:52.456Z,36.00
2022-12-01T09:54:52.475Z,37.80
2022-12-01T09:55:52.442Z,43.40
2022-12-01T09:56:52.435Z,44.40
2022-12-01T09:57:52.424Z,39.50
2022-12-01T09:58:52.416Z,34.10
2022-12-01T09:59:52.418Z,30.80
2022-12-01T10:00:52.450Z,30.60
2022-12-01T10:01:52.506Z,28.30
2022-12-01T10:02:52.379Z,26.00
2022-12-01T10:03:52.364Z,26.70
2022-12-01T10:04:52.449Z,27.40
2022-12-01T10:06:25.228Z,29.30
2022-12-01T10:06:53.336Z,31.70
2022-12-01T10:07:52.360Z,29.80
2022-12-01T10:08:52.309Z,29.30
2022-12-01T10:09:52.441Z,31.30
2022-12-01T10:10:52.298Z,29.10
2022-12-01T10:11:52.276Z,28.40
2022-12-01T10:12:52.270Z,28.90
2022-12-01T10:13:52.258Z,31.20
2022-12-01T10:14:52.269Z,28.70
2022-12-01T10:15:52.269Z,29.50
2022-12-01T10:16:52.236Z,30.10
2022-12-01T10:17:52.220Z,30.70
2022-12-01T10:18:52.209Z,33.70
2022-12-01T10:19:52.357Z,30.90
2022-12-01T10:20:52.191Z,36.00
2022-12-01T10:21:52.174Z,34.60
2022-12-01T10:22:52.172Z,31.00
2022-12-01T10:23:52.161Z,30.10
2022-12-01T10:24:52.150Z,31.20
2022-12-01T10:25:52.154Z,30.50
2022-12-01T10:26:52.133Z,30.30
2022-12-01T10:27:52.114Z,31.10
2022-12-01T10:28:52.113Z,34.20
2022-12-01T10:29:52.253Z,32.90
2022-12-01T10:30:52.110Z,33.70
2022-12-01T10:31:52.100Z,35.10
2022-12-01T10:32:52.066Z,41.90
2022-12-01T10:33:52.056Z,35.80
2022-12-01T10:34:52.052Z,32.40
2022-12-01T10:35:52.056Z,31.50
2022-12-01T10:36:52.026Z,31.60
2022-12-01T10:37:52.088Z,30.10
2022-12-01T10:38:52.016Z,31.40
2022-12-01T10:39:52.547Z,34.80
2022-12-01T10:40:52.009Z,29.30
2022-12-01T10:41:51.978Z,27.80
2022-12-01T10:42:51.970Z,27.90
2022-12-01T10:43:51.961Z,29.80
2022-12-01T10:44:51.948Z,29.50
2022-12-01T10:45:51.986Z,28.00
2022-12-01T10:46:51.938Z,29.60
2022-12-01T10:47:56.161Z,30.00
2022-12-01T10:48:52.906Z,28.00
2022-12-01T10:49:52.295Z,28.20
2022-12-01T10:50:51.900Z,26.70
2022-12-01T10:51:51.869Z,30.90
2022-12-01T10:52:51.868Z,28.30
2022-12-01T10:53:51.852Z,28.20
2022-12-01T10:54:51.842Z,28.50
2022-12-01T10:55:51.850Z,29.90
2022-12-01T10:56:51.833Z,27.00
2022-12-01T10:57:51.810Z,27.20
2022-12-01T10:58:51.814Z,26.00
2022-12-01T10:59:52.007Z,27.20
2022-12-01T11:00:59.758Z,26.60
2022-12-01T11:01:52.920Z,25.50
2022-12-01T11:02:51.929Z,25.80
2022-12-01T11:03:51.783Z,28.80
2022-12-01T11:04:51.746Z,31.40
2022-12-01T11:05:51.884Z,29.90
2022-12-01T11:06:51.732Z,27.70
2022-12-01T11:07:51.787Z,26.10
2022-12-01T11:08:51.718Z,29.50
2022-12-01T11:09:51.795Z,30.50
2022-12-01T11:10:51.705Z,31.50
2022-12-01T11:11:51.666Z,27.70
2022-12-01T11:12:51.666Z,32.90
2022-12-01T11:13:51.647Z,30.70
2022-12-01T11:14:51.647Z,28.30
2022-12-01T11:15:51.654Z,27.50
2022-12-01T11:16:51.670Z,31.70
2022-12-01T11:17:51.607Z,29.90
2022-12-01T11:18:51.651Z,36.30
2022-12-01T11:19:51.929Z,33.90
2022-12-01T11:20:51.607Z,32.70
2022-12-01T11:21:51.570Z,33.70
2022-12-01T11:22:51.568Z,29.80
2022-12-01T11:23:51.550Z,28.20
2022-12-01T11:24:51.552Z,26.40
2022-12-01T11:25:51.548Z,28.60
2022-12-01T11:26:51.521Z,30.00
2022-12-01T11:27:51.510Z,30.80
2022-12-01T11:28:51.509Z,31.40
2022-12-01T11:29:51.919Z,27.50
2022-12-01T11:30:56.485Z,28.40
2022-12-01T11:31:52.472Z,29.90
2022-12-01T11:32:51.469Z,63.20
2022-12-01T11:33:51.445Z,40.70
2022-12-01T11:34:51.646Z,36.40
2022-12-01T11:35:51.452Z,78.20
2022-12-01T11:36:51.422Z,43.10
2022-12-01T11:38:27.164Z,41.00
2022-12-01T11:38:52.478Z,38.40
2022-12-01T11:39:51.860Z,35.20
2022-12-01T11:40:51.393Z,37.90
2022-12-01T11:41:51.366Z,39.20
2022-12-01T11:42:51.372Z,57.70
2022-12-01T11:44:01.249Z,53.50
2022-12-01T11:44:52.533Z,59.40
2022-12-01T11:45:51.390Z,48.80
2022-12-01T11:47:07.697Z,53.40
2022-12-01T11:47:52.309Z,44.30
2022-12-01T11:48:51.307Z,47.70
2022-12-01T11:49:51.477Z,37.20
2022-12-01T11:50:51.301Z,33.60
2022-12-01T11:51:51.268Z,30.80
2022-12-01T11:52:51.258Z,32.10
2022-12-01T11:53:51.250Z,31.90
2022-12-01T11:54:51.238Z,31.00
2022-12-01T11:55:51.249Z,30.10
2022-12-01T11:57:17.469Z,30.10
2022-12-01T11:57:52.211Z,33.70
2022-12-01T11:58:51.275Z,31.60
2022-12-01T11:59:51.497Z,30.10
2022-12-01T12:00:51.201Z,29.80
2022-12-01T12:01:51.161Z,32.80
2022-12-01T12:02:51.212Z,31.00
2022-12-01T12:03:51.178Z,30.70
2022-12-01T12:04:51.152Z,31.50
2022-12-01T12:05:51.467Z,32.20
2022-12-01T12:06:51.131Z,34.00
2022-12-01T12:07:51.136Z,33.00
2022-12-01T12:08:51.186Z,33.50
2022-12-01T12:09:51.583Z,31.70
2022-12-01T12:10:51.186Z,35.20
2022-12-01T12:11:51.069Z,36.70
2022-12-01T12:12:51.062Z,35.00
2022-12-01T12:13:51.044Z,33.70
2022-12-01T12:14:51.046Z,34.10
2022-12-01T12:15:51.053Z,33.50
2022-12-01T12:16:51.017Z,38.20
2022-12-01T12:17:51.049Z,34.80
2022-12-01T12:18:51.003Z,31.70
2022-12-01T12:20:08.065Z,32.70
2022-12-01T12:20:52.006Z,35.20
2022-12-01T12:21:50.965Z,36.70
2022-12-01T12:22:55.212Z,34.10
2022-12-01T12:23:50.944Z,34.50
2022-12-01T12:24:50.935Z,33.80
2022-12-01T12:25:50.945Z,32.90
2022-12-01T12:26:50.917Z,33.50
2022-12-01T12:27:50.906Z,35.90
2022-12-01T12:28:50.908Z,34.50
2022-12-01T12:29:51.338Z,35.10
2022-12-01T12:30:50.948Z,33.90
2022-12-01T12:31:50.865Z,33.80
2022-12-01T12:32:50.859Z,38.20
2022-12-01T12:33:50.849Z,34.60
2022-12-01T12:34:50.837Z,35.90
2022-12-01T12:35:50.839Z,36.90
2022-12-01T12:36:50.826Z,38.10
2022-12-01T12:37:50.827Z,37.00
2022-12-01T12:38:50.799Z,39.30
2022-12-01T12:39:51.257Z,38.70
2022-12-01T12:40:50.799Z,38.90
2022-12-01T12:41:50.760Z,38.00
2022-12-01T12:42:50.762Z,38.80
2022-12-01T12:43:50.744Z,41.30
2022-12-01T12:44:50.739Z,40.40
2022-12-01T12:45:50.799Z,38.30
2022-12-01T12:46:50.721Z,39.40
2022-12-01T12:47:50.703Z,37.60
2022-12-01T12:49:12.127Z,36.60
2022-12-01T12:49:51.959Z,42.60
2022-12-01T12:50:50.694Z,39.60
2022-12-01T12:51:50.663Z,39.60
2022-12-01T12:52:50.655Z,38.80